Flight Track Log - Related Links

Times and Time Zones

All times are in EDT time to prevent confusion due to time zone crossing. See the CES2279 flight status page for this flight to view local times or setup timezone preferences in your user account.

Time Position Orientation Groundspeed Altitude Reporting Facility
EDT Latitude Longitude Course Direction KTS MPH feet Rate Location/Type
Wed 02:14:00 AM 36.5098 97.9544 271° West  Level Estimated
Wed 02:15:00 AM 36.5073 97.8409 268° West  Level Estimated
Wed 02:16:00 AM 36.5047 97.7274 268° West  Level Estimated
Wed 02:17:00 AM 36.5020 97.6139 268° West  Level Estimated
Wed 02:18:00 AM 36.4992 97.5004 268° West  Level Estimated
Wed 02:19:00 AM 36.4963 97.3869 268° West  Level Estimated
Wed 02:20:00 AM 36.4933 97.2735 268° West  Level Estimated
Wed 02:21:00 AM 36.4902 97.1600 268° West  Level Estimated
Wed 02:22:00 AM 36.4869 97.0466 268° West  Level Estimated
Wed 02:23:00 AM 36.4836 96.9331 268° West  Level Estimated
Wed 02:24:00 AM 36.4801 96.8197 268° West  Level Estimated
Wed 02:25:00 AM 36.4766 96.7063 268° West  Level Estimated
Wed 02:26:00 AM 36.4729 96.5929 268° West  Level Estimated
Wed 02:27:00 AM 36.4692 96.4795 268° West  Level Estimated
Wed 02:28:00 AM 36.4653 96.3661 268° West  Level Estimated
Wed 02:29:00 AM 36.4613 96.2528 268° West  Level Estimated
Wed 02:30:00 AM 36.4572 96.1394 267° West  Level Estimated
Wed 02:31:00 AM 36.4530 96.0260 267° West  Level Estimated
Wed 02:32:00 AM 36.4487 95.9127 267° West  Level Estimated
Wed 02:33:00 AM 36.4443 95.7994 267° West  Level Estimated
Wed 02:34:00 AM 36.4397 95.6861 267° West  Level Estimated
Wed 02:35:00 AM 36.4351 95.5728 267° West  Level Estimated
Wed 02:36:00 AM 36.4304 95.4595 267° West  Level Estimated
Wed 02:37:00 AM 36.4255 95.3462 267° West  Level Estimated
Wed 02:38:00 AM 36.4206 95.2330 267° West  Level Estimated
Wed 02:39:00 AM 36.4155 95.1198 267° West  Level Estimated
Wed 02:40:00 AM 36.4104 95.0065 267° West  Level Estimated
Wed 02:41:00 AM 36.4051 94.8933 267° West  Level Estimated
Wed 02:42:00 AM 36.4000 94.7861 267° West  Level Estimated
Wed 02:43:00 AM 36.4000 94.7861 90° East  Level Estimated
Wed 02:44:00 AM 36.4000 94.7861 90° East  Level Estimated
Wed 02:45:00 AM 36.4000 94.7861 90° East  Level Estimated
Wed 02:46:00 AM 36.4000 94.7861 90° East  Level Estimated
Wed 02:47:00 AM 36.4000 94.7861 90° East  Level Estimated
Wed 02:48:00 AM 36.4000 94.7861 90° East  Level Estimated
Wed 02:49:00 AM 36.4000 94.7861 90° East  Level Estimated
Wed 02:50:00 AM 36.4000 94.7861 90° East  Level Estimated
Wed 02:51:00 AM 36.4000 94.7861 90° East  Level Estimated
Wed 02:52:00 AM 36.4000 94.7861 90° East  Level Estimated
Wed 02:53:00 AM 36.4000 94.7861 90° East  Level Estimated

Login

Don't have an account? Register now (free) for customized features, flight alerts, and more!